Terminal Aerodrome Forecast
Issued by NWS Twin Cities, MN

Home | Current Version | Previous Version | Graphics & Text | Print | Product List | Glossary On
Versions: 1 2 3 4 5 6 7 8 9 10 11 12 13 14 15 16 17 18 19 20 21 22 23 24 25
000
FTUS43 KMPX 260200 AAA
TAFMSP
TAF AMD
KMSP 260248Z 2603/2706 29006KT P6SM FEW045 SCT250
     FM261400 31007KT P6SM FEW050 SCT250
     FM270000 VRB03KT P6SM SCT080 BKN150=

USA.gov is the U.S. government's official web portal to all federal, state and local government web resources and services.